Terminal Aerodrome Forecast
Issued by NWS Cleveland, OH

Home | Current Version | Previous Version | Text Only | Print | Product List | Glossary Off
Versions: 1 2 3 4 5 6 7 8 9 10 11 12 13 14 15 16 17 18 19

000
FTUS41 KCLE 250900 AAA
TAFMFD
TAF AMD
KMFD 250933Z 2510/2606 14011KT P6SM -RA SCT025 OVC060
     FM251100 16012G18KT 5SM -RA BR OVC025 WS015/19045KT
     FM251300 18015G25KT 2SM -SHRA BR OVC010
     FM251430 21018G30KT P6SM VCSH OVC025
     FM251900 25014G20KT P6SM SCT045
     FM260300 21005KT P6SM SCT100 BKN250=

USA.gov is the U.S. government's official web portal to all federal, state and local government web resources and services.